createdAt,value
2018-08-23T06:16:58.909Z,12.00
2018-08-23T06:19:29.988Z,10.90
2018-08-23T06:21:59.848Z,10.40
2018-08-23T06:24:30.325Z,11.13
2018-08-23T06:27:02.990Z,9.70
2018-08-23T06:32:06.831Z,9.60
2018-08-23T06:44:52.610Z,9.10
2018-08-23T06:47:22.570Z,7.80
2018-08-23T06:49:52.872Z,7.97
2018-08-23T06:53:03.214Z,8.80
2018-08-23T06:55:33.958Z,7.87
2018-08-23T06:58:04.433Z,7.33
2018-08-23T07:00:33.754Z,7.97
2018-08-23T07:03:04.636Z,7.80
2018-08-23T07:05:33.784Z,8.80
2018-08-23T07:08:03.034Z,8.37
2018-08-23T07:13:00.489Z,8.33
2018-08-23T07:15:29.527Z,8.33
2018-08-23T07:18:00.677Z,7.63
2018-08-23T07:20:29.734Z,7.80
2018-08-23T07:22:58.798Z,7.40
2018-08-23T07:25:32.265Z,6.70
2018-08-23T07:28:02.620Z,6.77
2018-08-23T07:30:31.775Z,7.17
2018-08-23T07:33:00.545Z,7.37
2018-08-23T07:35:29.364Z,7.70
2018-08-23T07:37:58.054Z,8.93
2018-08-23T07:40:28.342Z,6.87
2018-08-23T07:42:58.293Z,6.90
2018-08-23T07:45:27.854Z,6.90
2018-08-23T07:47:56.782Z,7.43
2018-08-23T07:50:25.546Z,6.70
2018-08-23T07:52:54.892Z,6.53
2018-08-23T07:55:23.870Z,7.53
2018-08-23T07:57:52.758Z,8.87
2018-08-23T08:00:28.881Z,8.00
2018-08-23T08:02:58.408Z,7.07
2018-08-23T08:05:30.360Z,7.57
2018-08-23T08:07:59.081Z,6.67
2018-08-23T08:10:32.533Z,6.70
2018-08-23T08:13:01.550Z,6.40
2018-08-23T08:15:31.122Z,6.10
2018-08-23T08:18:26.742Z,6.60
2018-08-23T08:21:02.314Z,8.43
2018-08-23T08:23:32.053Z,7.20
2018-08-23T08:26:01.278Z,5.40
2018-08-23T08:28:30.146Z,5.43
2018-08-23T08:32:30.369Z,5.67
2018-08-23T08:34:59.754Z,5.30
2018-08-23T08:37:30.650Z,5.50
2018-08-23T08:39:59.872Z,4.83
2018-08-23T08:42:30.560Z,5.33
2018-08-23T08:45:07.007Z,5.47
2018-08-23T08:47:36.536Z,6.20
2018-08-23T08:50:05.571Z,5.17
2018-08-23T08:52:34.551Z,4.30
2018-08-23T08:55:03.998Z,5.00
2018-08-23T08:57:33.564Z,4.60
2018-08-23T09:00:02.966Z,4.50
2018-08-23T09:02:32.737Z,5.10
2018-08-23T09:05:02.117Z,4.80
2018-08-23T09:07:32.253Z,4.37
2018-08-23T09:10:01.635Z,4.47
2018-08-23T09:12:32.565Z,5.27
2018-08-23T09:15:01.556Z,4.50
2018-08-23T09:17:42.113Z,4.43
2018-08-23T09:20:16.260Z,4.60
2018-08-23T09:22:50.489Z,5.10
2018-08-23T09:25:33.161Z,4.37
2018-08-23T09:28:01.976Z,4.53
2018-08-23T09:30:32.097Z,4.47
2018-08-23T09:33:07.237Z,4.30
2018-08-23T09:35:36.901Z,4.70
2018-08-23T09:38:14.404Z,4.37
2018-08-23T09:40:43.122Z,4.80
2018-08-23T09:43:12.112Z,6.17
2018-08-23T09:45:45.070Z,7.07
2018-08-23T09:48:14.292Z,4.67
2018-08-23T09:50:43.417Z,4.53
2018-08-23T09:53:17.971Z,3.90
2018-08-23T09:55:47.916Z,5.87
2018-08-23T09:58:25.568Z,5.07
2018-08-23T10:01:00.297Z,4.47
2018-08-23T10:03:35.353Z,4.80
2018-08-23T10:06:09.526Z,4.70
2018-08-23T10:08:44.789Z,4.90
2018-08-23T10:11:21.231Z,4.53
2018-08-23T10:13:56.004Z,4.23
2018-08-23T10:16:30.089Z,4.60
2018-08-23T10:19:00.989Z,4.60
2018-08-23T10:21:35.093Z,4.80
2018-08-23T10:24:18.075Z,4.77
2018-08-23T10:26:46.838Z,5.00
2018-08-23T10:29:16.103Z,4.70
2018-08-23T10:31:45.081Z,4.70
2018-08-23T10:34:14.076Z,4.60
2018-08-23T10:39:37.560Z,4.07
2018-08-23T10:45:00.158Z,6.17
2018-08-23T10:47:34.502Z,5.20
2018-08-23T10:50:03.993Z,4.77
2018-08-23T10:52:32.809Z,4.80
2018-08-23T10:57:54.539Z,5.23
2018-08-23T11:03:20.587Z,4.83
2018-08-23T11:08:42.791Z,6.47
2018-08-23T11:11:31.933Z,3.80
2018-08-23T11:14:05.220Z,4.70
2018-08-23T11:16:39.508Z,4.17
2018-08-23T11:19:13.377Z,4.50
2018-08-23T11:21:41.963Z,4.10
2018-08-23T11:24:11.070Z,4.77
2018-08-23T11:26:40.440Z,4.03
2018-08-23T11:29:09.425Z,5.40
2018-08-23T11:31:37.998Z,5.23
2018-08-23T11:34:07.154Z,4.30
2018-08-23T11:36:36.984Z,6.03
2018-08-23T11:39:08.318Z,5.50
2018-08-23T11:41:37.501Z,5.93
2018-08-23T11:44:06.481Z,7.67
2018-08-23T11:46:35.753Z,5.83
2018-08-23T11:49:04.947Z,5.20
2018-08-23T11:51:33.911Z,5.47
2018-08-23T11:54:02.829Z,3.87
2018-08-23T11:56:32.839Z,3.83
2018-08-23T11:59:02.251Z,3.30
2018-08-23T12:01:31.152Z,4.20
2018-08-23T12:04:00.552Z,3.70
2018-08-23T12:06:29.415Z,4.30
2018-08-23T12:08:58.030Z,4.27
2018-08-23T12:11:27.110Z,3.93
2018-08-23T12:13:56.143Z,5.50
2018-08-23T12:16:25.289Z,4.07
2018-08-23T12:18:54.388Z,5.40
2018-08-23T12:21:24.353Z,5.40
2018-08-23T12:23:53.147Z,3.47
2018-08-23T12:26:22.346Z,5.47
2018-08-23T12:28:57.000Z,4.60
2018-08-23T12:31:25.818Z,4.50
2018-08-23T12:33:54.795Z,4.03
2018-08-23T12:36:29.164Z,3.97
2018-08-23T12:39:03.113Z,3.60
2018-08-23T12:41:37.049Z,3.50
2018-08-23T12:44:06.082Z,3.60
2018-08-23T12:46:37.245Z,4.20
2018-08-23T12:49:08.610Z,4.90
2018-08-23T12:51:38.164Z,5.07
2018-08-23T12:54:07.554Z,4.90
2018-08-23T12:56:37.001Z,3.70
2018-08-23T12:59:07.409Z,2.90
2018-08-23T13:01:37.535Z,6.10
2018-08-23T13:04:07.556Z,3.97
2018-08-23T13:06:37.247Z,3.47
2018-08-23T13:09:07.768Z,3.83
2018-08-23T13:11:36.986Z,3.77
2018-08-23T13:14:07.040Z,4.23
2018-08-23T13:16:37.222Z,3.60
2018-08-23T13:19:07.285Z,3.63
2018-08-23T13:21:37.231Z,3.70
2018-08-23T13:24:07.049Z,3.73
2018-08-23T13:26:40.831Z,4.47
2018-08-23T13:29:09.280Z,3.60
2018-08-23T13:31:37.788Z,4.30
2018-08-23T13:34:06.388Z,3.90
2018-08-23T13:36:34.903Z,4.93
2018-08-23T13:39:03.847Z,4.43
2018-08-23T13:41:32.964Z,4.27
2018-08-23T13:44:01.595Z,3.60
2018-08-23T13:46:30.017Z,4.90
2018-08-23T13:48:58.641Z,4.90
2018-08-23T13:51:27.165Z,4.10
2018-08-23T13:53:55.854Z,4.73
2018-08-23T13:56:24.898Z,3.80
2018-08-23T13:58:54.324Z,3.40
2018-08-23T14:01:27.159Z,3.40
2018-08-23T14:03:56.587Z,3.60
2018-08-23T14:06:25.360Z,3.47
2018-08-23T14:08:53.967Z,3.50
2018-08-23T14:11:22.513Z,3.40
2018-08-23T14:13:51.311Z,3.90
2018-08-23T14:16:19.862Z,3.73
2018-08-23T14:18:48.364Z,6.03
2018-08-23T14:21:16.886Z,4.27
2018-08-23T14:23:45.434Z,4.03
2018-08-23T14:26:14.452Z,4.33
2018-08-23T14:28:42.984Z,4.30
2018-08-23T14:31:11.464Z,4.37
2018-08-23T14:33:39.928Z,4.50
2018-08-23T14:36:10.069Z,4.57
2018-08-23T14:38:38.594Z,3.53
2018-08-23T14:41:07.334Z,5.53
2018-08-23T14:43:35.888Z,7.23
2018-08-23T14:46:09.579Z,6.47
2018-08-23T14:48:39.620Z,6.80
2018-08-23T14:51:08.094Z,6.77
2018-08-23T14:53:36.619Z,6.00
2018-08-23T14:56:10.506Z,8.13
2018-08-23T14:58:39.268Z,5.97
2018-08-23T15:01:07.810Z,7.73
2018-08-23T15:03:36.188Z,7.17
2018-08-23T15:06:04.657Z,10.63
2018-08-23T15:08:33.160Z,13.40
2018-08-23T15:11:01.630Z,8.20
2018-08-23T15:13:30.093Z,9.00
2018-08-23T15:15:58.676Z,9.30
2018-08-23T15:18:27.280Z,7.50
2018-08-23T15:20:56.051Z,9.10
2018-08-23T15:23:24.608Z,6.73
2018-08-23T15:25:53.187Z,7.77
2018-08-23T15:28:21.773Z,6.10
2018-08-23T15:30:50.362Z,5.80
2018-08-23T15:33:19.196Z,6.43
2018-08-23T15:35:47.791Z,4.80
2018-08-23T15:38:16.445Z,5.37
2018-08-23T15:40:44.931Z,5.00
2018-08-23T15:43:13.460Z,6.00
2018-08-23T15:47:11.393Z,5.10
2018-08-23T15:49:39.927Z,5.73
2018-08-23T15:52:08.517Z,6.10
2018-08-23T15:54:37.096Z,5.83
2018-08-23T15:57:05.684Z,4.87
2018-08-23T15:59:34.286Z,5.20
2018-08-23T16:02:02.788Z,5.70
2018-08-23T16:04:31.291Z,5.33
2018-08-23T16:06:59.744Z,5.57
2018-08-23T16:09:28.241Z,5.53
2018-08-23T16:11:57.647Z,5.07
2018-08-23T16:14:26.179Z,5.80
2018-08-23T16:17:00.096Z,4.60
2018-08-23T16:19:33.930Z,5.30
2018-08-23T16:22:02.470Z,5.40
2018-08-23T16:24:30.964Z,4.50
2018-08-23T16:27:02.539Z,4.67
2018-08-23T16:29:31.657Z,5.13
2018-08-23T16:32:00.980Z,4.30
2018-08-23T16:34:30.165Z,5.33
2018-08-23T16:36:59.194Z,5.20
2018-08-23T16:39:28.312Z,4.60
2018-08-23T16:41:56.928Z,4.77
2018-08-23T16:44:25.864Z,5.47
2018-08-23T16:46:54.433Z,5.40
2018-08-23T16:49:23.486Z,4.77
2018-08-23T16:51:52.938Z,4.90
2018-08-23T16:54:22.240Z,5.10
2018-08-23T16:56:50.930Z,4.70
2018-08-23T16:59:19.731Z,4.50
2018-08-23T17:01:48.294Z,5.83
2018-08-23T17:04:17.217Z,5.13
2018-08-23T17:06:46.168Z,5.20
2018-08-23T17:09:15.145Z,4.83
2018-08-23T17:11:44.699Z,5.20
2018-08-23T17:14:14.833Z,5.60
2018-08-23T17:16:49.220Z,4.97
2018-08-23T17:19:18.150Z,5.40
2018-08-23T17:21:47.339Z,5.30
2018-08-23T17:24:16.375Z,5.20
2018-08-23T17:26:45.417Z,5.30
2018-08-23T17:29:14.269Z,5.00
2018-08-23T17:31:42.931Z,6.27
2018-08-23T17:34:12.051Z,5.77
2018-08-23T17:36:41.491Z,4.77
2018-08-23T17:39:10.225Z,5.40
2018-08-23T17:41:38.988Z,5.70
2018-08-23T17:44:07.832Z,4.80
2018-08-23T17:46:36.766Z,5.00
2018-08-23T17:49:05.423Z,5.37
2018-08-23T17:51:34.128Z,5.10
2018-08-23T17:54:03.267Z,5.30
2018-08-23T17:56:32.181Z,5.40
2018-08-23T17:59:01.119Z,5.33
2018-08-23T18:01:30.221Z,5.63
2018-08-23T18:03:59.430Z,5.10
2018-08-23T18:06:28.541Z,5.97
2018-08-23T18:08:57.327Z,6.07
2018-08-23T18:11:26.382Z,6.13
2018-08-23T18:13:55.226Z,5.60
2018-08-23T18:16:29.373Z,5.63
2018-08-23T18:18:58.400Z,5.30
2018-08-23T18:21:27.251Z,5.77
2018-08-23T18:23:56.288Z,5.67
2018-08-23T18:26:25.320Z,6.15
2018-08-23T18:28:54.069Z,5.50
2018-08-23T18:31:22.868Z,6.10
2018-08-23T18:33:51.652Z,5.97
2018-08-23T18:36:20.621Z,6.30
2018-08-23T18:38:49.626Z,6.20
2018-08-23T18:41:19.238Z,5.63
2018-08-23T18:43:48.158Z,6.97
2018-08-23T18:46:17.036Z,5.90
2018-08-23T18:48:45.932Z,6.40
2018-08-23T18:51:14.644Z,6.57
2018-08-23T18:53:43.914Z,6.50
2018-08-23T18:56:13.602Z,6.07
2018-08-23T18:58:42.480Z,6.10
2018-08-23T19:01:11.642Z,5.83
2018-08-23T19:03:40.706Z,6.57
2018-08-23T19:06:09.358Z,6.27
2018-08-23T19:08:38.244Z,5.63
2018-08-23T19:11:14.038Z,6.57
2018-08-23T19:14:00.088Z,6.60
2018-08-23T19:22:06.708Z,6.50
2018-08-23T19:24:35.745Z,6.30
2018-08-23T19:27:15.522Z,6.63
2018-08-23T19:32:36.839Z,6.50
2018-08-23T19:35:07.251Z,5.40
2018-08-23T19:37:36.245Z,5.60
2018-08-23T19:42:56.819Z,5.80
2018-08-23T19:48:21.162Z,5.90
2018-08-23T19:50:55.570Z,5.90
2018-08-23T19:56:26.670Z,6.40
2018-08-23T20:07:16.096Z,6.37
2018-08-23T20:09:54.180Z,7.50
2018-08-23T20:15:24.990Z,6.87
2018-08-23T20:23:43.093Z,6.60
2018-08-23T20:31:56.064Z,6.33
2018-08-23T20:34:25.324Z,7.07
2018-08-23T20:36:54.294Z,6.53
2018-08-23T20:39:23.380Z,7.73
2018-08-23T20:41:52.509Z,6.10
2018-08-23T20:44:21.444Z,6.33
2018-08-23T20:46:57.622Z,6.83
2018-08-23T20:49:26.642Z,7.13
2018-08-23T20:51:55.483Z,6.80
2018-08-23T20:54:24.510Z,7.43
2018-08-23T20:56:54.809Z,7.23
2018-08-23T20:59:24.720Z,8.20
2018-08-23T21:01:54.790Z,7.40
2018-08-23T21:04:24.243Z,7.40
2018-08-23T21:06:58.800Z,6.83
2018-08-23T21:09:27.834Z,7.60
2018-08-23T21:11:56.877Z,6.67
2018-08-23T21:14:25.917Z,7.70
2018-08-23T21:16:55.347Z,7.80
2018-08-23T21:19:24.785Z,7.70
2018-08-23T21:21:54.993Z,7.93
2018-08-23T21:24:26.222Z,7.57
2018-08-23T21:26:55.433Z,7.80
2018-08-23T21:29:29.760Z,7.63
2018-08-23T21:31:58.752Z,7.87
2018-08-23T21:34:27.734Z,7.30
2018-08-23T21:36:56.958Z,7.50
2018-08-23T21:39:25.955Z,7.40
2018-08-23T21:41:55.269Z,7.80
2018-08-23T21:44:25.095Z,8.00
2018-08-23T21:46:55.364Z,8.13
2018-08-23T21:49:24.602Z,8.80
2018-08-23T21:51:54.461Z,9.00
2018-08-23T21:54:25.482Z,8.30
2018-08-23T21:56:54.784Z,8.90
2018-08-23T21:59:23.800Z,10.10
2018-08-23T22:02:01.447Z,8.20
2018-08-23T22:04:31.750Z,9.60
2018-08-23T22:07:00.751Z,8.30
2018-08-23T22:09:29.808Z,10.50
2018-08-23T22:11:58.747Z,10.00
2018-08-23T22:14:27.907Z,9.17
2018-08-23T22:16:56.795Z,8.00
2018-08-23T22:19:25.586Z,9.20
2018-08-23T22:21:54.371Z,9.57
2018-08-23T22:24:24.055Z,8.60
2018-08-23T22:29:56.523Z,8.07
2018-08-23T22:32:26.596Z,8.07
2018-08-23T22:37:51.835Z,9.60
2018-08-23T22:40:25.551Z,8.90
2018-08-23T22:45:47.472Z,9.07
2018-08-23T22:48:17.273Z,9.30
2018-08-23T22:50:46.962Z,9.30
2018-08-23T22:53:16.286Z,7.93
2018-08-23T22:55:45.628Z,9.40
2018-08-23T22:58:15.359Z,9.80
2018-08-23T23:00:44.878Z,9.83
2018-08-23T23:03:19.886Z,9.05
2018-08-23T23:05:49.137Z,9.20
2018-08-23T23:08:18.499Z,9.75
2018-08-23T23:10:47.877Z,9.33
2018-08-23T23:13:16.460Z,9.75
2018-08-23T23:15:45.190Z,9.60
2018-08-23T23:18:14.242Z,9.30
2018-08-23T23:20:42.888Z,10.50
2018-08-23T23:23:11.728Z,8.95
2018-08-23T23:25:40.560Z,8.60
2018-08-23T23:30:38.111Z,9.13
2018-08-23T23:33:07.372Z,9.70
2018-08-23T23:35:36.488Z,10.20
2018-08-23T23:38:05.312Z,9.87
2018-08-23T23:40:34.131Z,8.43
2018-08-23T23:43:02.853Z,10.50
2018-08-23T23:45:31.627Z,9.20
2018-08-23T23:48:00.573Z,8.90
2018-08-23T23:50:29.463Z,8.63
2018-08-23T23:52:58.282Z,9.17
2018-08-23T23:55:26.873Z,9.40
2018-08-23T23:57:55.729Z,8.70
